createdAt,value
2024-01-06T00:00:44.019Z,1.05
2024-01-06T00:03:11.608Z,0.55
2024-01-06T00:05:39.182Z,1.45
2024-01-06T00:08:07.445Z,0.38
2024-01-06T00:10:34.851Z,0.55
2024-01-06T00:13:02.391Z,1.10
2024-01-06T00:15:31.723Z,1.13
2024-01-06T00:17:59.266Z,0.28
2024-01-06T00:20:26.756Z,1.15
2024-01-06T00:22:54.112Z,1.55
2024-01-06T00:25:21.502Z,1.35
2024-01-06T00:27:49.044Z,0.85
2024-01-06T00:30:16.602Z,0.10
2024-01-06T00:32:44.113Z,0.57
2024-01-06T00:35:11.620Z,0.38
2024-01-06T00:37:39.090Z,0.50
2024-01-06T00:40:06.905Z,0.98
2024-01-06T00:42:34.400Z,0.35
2024-01-06T00:45:01.838Z,0.77
2024-01-06T00:47:29.247Z,0.10
2024-01-06T00:49:56.693Z,0.50
2024-01-06T00:52:24.089Z,1.20
2024-01-06T00:54:51.559Z,0.82
2024-01-06T00:57:19.133Z,0.55
2024-01-06T00:59:46.568Z,0.15
2024-01-06T01:02:14.008Z,0.40
2024-01-06T01:04:43.952Z,0.77
2024-01-06T01:07:11.492Z,0.95
2024-01-06T01:09:38.961Z,0.73
2024-01-06T01:12:06.705Z,0.28
2024-01-06T01:14:37.012Z,0.77
2024-01-06T01:17:05.558Z,0.38
2024-01-06T01:19:34.501Z,0.50
2024-01-06T01:24:29.194Z,0.00
2024-01-06T01:26:56.735Z,0.45
2024-01-06T01:29:24.153Z,0.45
2024-01-06T01:31:54.215Z,0.93
2024-01-06T01:34:21.908Z,0.43
2024-01-06T01:36:49.504Z,1.00
2024-01-06T01:39:17.083Z,0.00
2024-01-06T01:41:44.703Z,1.27
2024-01-06T01:44:12.161Z,0.88
2024-01-06T01:46:40.523Z,0.88
2024-01-06T01:49:08.102Z,0.30
2024-01-06T01:51:39.832Z,1.20
2024-01-06T01:54:08.416Z,0.00
2024-01-06T01:56:36.041Z,1.10
2024-01-06T01:59:15.932Z,0.30
2024-01-06T02:01:43.488Z,0.10
2024-01-06T02:04:11.361Z,0.22
2024-01-06T02:06:38.823Z,0.47
2024-01-06T02:09:07.006Z,0.38
2024-01-06T02:11:34.581Z,0.15
2024-01-06T02:14:02.159Z,0.63
2024-01-06T02:16:29.618Z,0.63
2024-01-06T02:18:59.422Z,0.63
2024-01-06T02:21:29.098Z,1.10
2024-01-06T02:23:56.473Z,1.35
2024-01-06T02:26:24.265Z,1.60
2024-01-06T02:28:51.725Z,0.00
2024-01-06T02:31:19.177Z,0.50
2024-01-06T02:33:47.016Z,0.73
2024-01-06T02:36:14.539Z,1.65
2024-01-06T02:38:41.940Z,0.73
2024-01-06T02:41:09.325Z,0.00
2024-01-06T02:43:38.964Z,1.33
2024-01-06T02:46:06.379Z,1.02
2024-01-06T02:48:33.808Z,0.30
2024-01-06T02:51:01.342Z,0.50
2024-01-06T02:53:28.838Z,0.95
2024-01-06T02:55:56.220Z,1.85
2024-01-06T02:58:23.602Z,0.55
2024-01-06T03:00:50.998Z,0.40
2024-01-06T03:03:18.458Z,0.90
2024-01-06T03:05:46.033Z,1.38
2024-01-06T03:08:13.550Z,2.90
2024-01-06T03:10:41.081Z,0.82
2024-01-06T03:13:08.160Z,1.10
2024-01-06T03:15:35.619Z,0.00
2024-01-06T03:18:03.260Z,0.03
2024-01-06T03:20:30.638Z,0.00
2024-01-06T03:22:57.969Z,0.30
2024-01-06T03:25:25.369Z,0.38
2024-01-06T03:27:52.823Z,0.15
2024-01-06T03:30:20.319Z,0.25
2024-01-06T03:32:47.870Z,0.00
2024-01-06T03:35:16.437Z,0.35
2024-01-06T03:37:43.826Z,0.52
2024-01-06T03:40:11.532Z,0.32
2024-01-06T03:42:38.944Z,0.30
2024-01-06T03:45:06.616Z,0.50
2024-01-06T03:47:34.045Z,1.75
2024-01-06T03:50:02.082Z,0.32
2024-01-06T03:52:29.484Z,0.65
2024-01-06T03:54:59.348Z,0.47
2024-01-06T03:57:26.820Z,0.70
2024-01-06T03:59:54.264Z,0.20
2024-01-06T04:02:21.695Z,0.70
2024-01-06T04:04:49.208Z,0.73
2024-01-06T04:07:16.649Z,1.20
2024-01-06T04:09:48.027Z,0.82
2024-01-06T04:12:15.506Z,1.00
2024-01-06T04:14:45.559Z,0.35
2024-01-06T04:17:13.078Z,1.15
2024-01-06T04:19:40.545Z,0.47
2024-01-06T04:22:08.063Z,0.57
2024-01-06T04:24:38.720Z,0.25
2024-01-06T04:27:06.709Z,0.28
2024-01-06T04:29:34.150Z,0.15
2024-01-06T04:32:01.563Z,0.00
2024-01-06T04:34:29.027Z,0.90
2024-01-06T04:36:56.581Z,1.33
2024-01-06T04:39:25.228Z,1.42
2024-01-06T04:41:52.797Z,1.13
2024-01-06T04:44:23.454Z,1.85
2024-01-06T04:46:50.870Z,0.25
2024-01-06T04:49:18.418Z,0.50
2024-01-06T04:51:45.874Z,0.52
2024-01-06T04:54:13.357Z,0.32
2024-01-06T04:56:40.810Z,0.45
2024-01-06T04:59:08.272Z,1.15
2024-01-06T05:01:35.844Z,0.32
2024-01-06T05:04:03.568Z,0.68
2024-01-06T05:06:31.140Z,0.25
2024-01-06T05:08:58.546Z,1.75
2024-01-06T05:11:25.910Z,0.75
2024-01-06T05:13:53.337Z,1.23
2024-01-06T05:16:20.791Z,2.50
2024-01-06T05:18:48.262Z,0.68
2024-01-06T05:21:15.793Z,0.22
2024-01-06T05:23:43.186Z,0.30
2024-01-06T05:26:10.554Z,4.63
2024-01-06T05:28:37.974Z,6.28
2024-01-06T05:31:05.797Z,5.82
2024-01-06T05:33:33.414Z,2.75
2024-01-06T05:36:00.904Z,2.35
2024-01-06T05:38:28.301Z,0.60
2024-01-06T05:40:55.778Z,1.85
2024-01-06T05:43:23.187Z,3.05
2024-01-06T05:45:50.636Z,1.63
2024-01-06T05:48:18.649Z,1.55
2024-01-06T05:50:46.225Z,1.60
2024-01-06T05:53:15.553Z,2.00
2024-01-06T05:55:42.958Z,0.80
2024-01-06T05:58:10.366Z,0.95
2024-01-06T06:00:37.905Z,1.50
2024-01-06T06:03:05.520Z,1.10
2024-01-06T06:05:32.942Z,0.63
2024-01-06T06:08:00.402Z,0.82
2024-01-06T06:10:42.050Z,1.50
2024-01-06T06:13:12.280Z,0.98
2024-01-06T06:15:39.742Z,1.45
2024-01-06T06:18:08.030Z,0.55
2024-01-06T06:20:35.571Z,1.20
2024-01-06T06:23:03.005Z,1.00
2024-01-06T06:25:30.381Z,0.75
2024-01-06T06:27:57.858Z,0.40
2024-01-06T06:30:25.351Z,0.70
2024-01-06T06:32:52.802Z,1.13
2024-01-06T06:35:20.248Z,1.02
2024-01-06T06:37:47.606Z,0.63
2024-01-06T06:40:15.200Z,0.50
2024-01-06T06:42:42.542Z,1.73
2024-01-06T06:45:13.041Z,0.85
2024-01-06T06:47:40.584Z,0.47
2024-01-06T06:50:08.147Z,1.73
2024-01-06T06:52:35.571Z,2.30
2024-01-06T06:55:02.974Z,1.08
2024-01-06T06:57:30.401Z,0.55
2024-01-06T06:59:57.768Z,0.10
2024-01-06T07:02:25.127Z,1.00
2024-01-06T07:04:52.619Z,0.25
2024-01-06T07:07:20.025Z,0.35
2024-01-06T07:09:47.469Z,0.52
2024-01-06T07:12:14.920Z,0.85
2024-01-06T07:14:42.268Z,2.20
2024-01-06T07:17:10.232Z,1.33
2024-01-06T07:19:38.265Z,0.00
2024-01-06T07:22:07.570Z,2.10
2024-01-06T07:24:35.315Z,0.13
2024-01-06T07:27:02.739Z,1.85
2024-01-06T07:29:30.112Z,0.20
2024-01-06T07:31:57.825Z,0.38
2024-01-06T07:34:26.524Z,0.70
2024-01-06T07:36:54.280Z,1.40
2024-01-06T07:39:21.749Z,1.42
2024-01-06T07:41:49.125Z,1.48
2024-01-06T07:44:17.375Z,1.13
2024-01-06T07:46:44.781Z,1.83
2024-01-06T07:49:12.299Z,1.65
2024-01-06T07:51:39.819Z,0.00
2024-01-06T07:54:09.909Z,1.80
2024-01-06T07:56:37.524Z,2.80
2024-01-06T07:59:05.561Z,0.93
2024-01-06T08:01:35.294Z,0.70
2024-01-06T08:04:03.023Z,1.02
2024-01-06T08:06:30.564Z,0.70
2024-01-06T08:09:00.163Z,1.45
2024-01-06T08:11:27.583Z,2.03
2024-01-06T08:13:54.968Z,0.80
2024-01-06T08:16:22.632Z,2.20
2024-01-06T08:18:50.155Z,3.55
2024-01-06T08:21:17.677Z,2.45
2024-01-06T08:23:47.019Z,1.50
2024-01-06T08:26:14.549Z,2.60
2024-01-06T08:28:44.210Z,1.73
2024-01-06T08:31:11.832Z,3.10
2024-01-06T08:33:39.522Z,3.47
2024-01-06T08:36:07.401Z,1.45
2024-01-06T08:38:34.857Z,1.20
2024-01-06T08:41:02.246Z,2.83
2024-01-06T08:43:29.779Z,1.80
2024-01-06T08:46:00.014Z,1.33
2024-01-06T08:48:27.580Z,0.82
2024-01-06T08:50:55.040Z,1.10
2024-01-06T08:53:22.513Z,1.27
2024-01-06T08:55:49.977Z,2.63
2024-01-06T08:58:18.772Z,1.80
2024-01-06T09:00:46.846Z,1.13
2024-01-06T09:03:14.553Z,2.83
2024-01-06T09:05:42.105Z,3.63
2024-01-06T09:08:09.541Z,2.85
2024-01-06T09:10:37.413Z,0.55
2024-01-06T09:13:05.885Z,2.03
2024-01-06T09:15:33.312Z,1.25
2024-01-06T09:18:00.775Z,2.42
2024-01-06T09:20:30.110Z,0.90
2024-01-06T09:22:57.523Z,2.05
2024-01-06T09:25:25.871Z,1.67
2024-01-06T09:27:54.594Z,3.33
2024-01-06T09:30:22.374Z,0.98
2024-01-06T09:32:49.938Z,1.70
2024-01-06T09:35:17.331Z,2.03
2024-01-06T09:37:44.716Z,2.75
2024-01-06T09:40:16.734Z,1.90
2024-01-06T09:42:44.220Z,0.52
2024-01-06T09:45:11.675Z,2.88
2024-01-06T09:47:40.440Z,0.85
2024-01-06T09:50:10.640Z,2.17
2024-01-06T09:52:42.551Z,0.47
2024-01-06T09:55:12.578Z,2.22
2024-01-06T09:57:40.209Z,0.82
2024-01-06T10:00:09.956Z,1.58
2024-01-06T10:02:37.373Z,0.65
2024-01-06T10:05:05.062Z,1.00
2024-01-06T10:07:32.521Z,2.50
2024-01-06T10:10:02.448Z,2.47
2024-01-06T10:12:32.819Z,0.57
2024-01-06T10:15:02.393Z,0.65
2024-01-06T10:17:29.800Z,0.57
2024-01-06T10:19:58.148Z,0.47
2024-01-06T10:22:25.653Z,1.02
2024-01-06T10:24:53.150Z,1.10
2024-01-06T10:27:20.655Z,0.45
2024-01-06T10:29:48.163Z,0.65
2024-01-06T10:32:15.822Z,0.22
2024-01-06T10:34:43.996Z,0.95
2024-01-06T10:37:12.391Z,0.70
2024-01-06T10:39:39.884Z,1.25
2024-01-06T10:42:11.224Z,0.55
2024-01-06T10:44:39.304Z,0.63
2024-01-06T10:47:08.020Z,0.80
2024-01-06T10:49:35.928Z,0.90
2024-01-06T10:52:07.172Z,0.23
2024-01-06T10:54:35.373Z,2.17
2024-01-06T10:57:04.727Z,0.93
2024-01-06T10:59:35.076Z,0.90
2024-01-06T11:02:03.823Z,0.10
2024-01-06T11:04:33.741Z,1.98
2024-01-06T11:07:01.377Z,0.00
2024-01-06T11:09:35.064Z,0.15
2024-01-06T11:12:03.022Z,0.32
2024-01-06T11:14:36.142Z,0.85
2024-01-06T11:17:05.844Z,0.28
2024-01-06T11:19:37.333Z,0.10
2024-01-06T11:22:32.806Z,0.00
2024-01-06T11:25:21.295Z,0.05
2024-01-06T11:27:49.759Z,1.15
2024-01-06T11:30:23.108Z,1.25
2024-01-06T11:32:50.910Z,0.90
2024-01-06T11:35:21.475Z,0.60
2024-01-06T11:37:50.011Z,0.50
2024-01-06T11:40:20.269Z,0.00
2024-01-06T11:42:48.337Z,0.30
2024-01-06T11:45:19.227Z,0.08
2024-01-06T11:47:50.342Z,0.45
2024-01-06T11:50:20.515Z,1.15
2024-01-06T11:52:48.004Z,0.20
2024-01-06T11:55:16.066Z,0.00
2024-01-06T11:57:45.926Z,0.15
2024-01-06T12:00:21.436Z,0.10
2024-01-06T12:02:48.800Z,0.00
2024-01-06T12:05:17.349Z,0.03
2024-01-06T12:07:44.852Z,0.35
2024-01-06T12:10:12.762Z,0.60
2024-01-06T12:12:40.231Z,0.47
2024-01-06T12:15:13.281Z,0.55
2024-01-06T12:17:42.864Z,0.00
2024-01-06T12:20:11.048Z,1.58
2024-01-06T12:22:46.139Z,0.80
2024-01-06T12:25:16.779Z,0.35
2024-01-06T12:27:45.099Z,0.00
2024-01-06T12:30:20.497Z,0.25
2024-01-06T12:32:50.613Z,0.32
2024-01-06T12:35:18.838Z,0.98
2024-01-06T12:37:46.477Z,0.40
2024-01-06T12:40:14.711Z,0.60
2024-01-06T12:42:43.334Z,0.20
2024-01-06T12:45:14.638Z,0.25
2024-01-06T12:47:43.471Z,0.30
2024-01-06T12:50:11.014Z,0.00
2024-01-06T12:52:40.629Z,0.00
2024-01-06T12:55:10.953Z,0.00
2024-01-06T12:57:40.976Z,0.00
2024-01-06T13:00:13.083Z,0.20
2024-01-06T13:02:40.610Z,0.00
2024-01-06T13:05:10.360Z,0.52
2024-01-06T13:07:38.062Z,0.00
2024-01-06T13:10:08.232Z,0.00
2024-01-06T13:12:38.447Z,0.30
2024-01-06T13:15:06.944Z,0.73
2024-01-06T13:17:34.531Z,0.00
2024-01-06T13:20:02.079Z,0.40
2024-01-06T13:22:29.917Z,0.68
2024-01-06T13:24:57.424Z,0.35
2024-01-06T13:27:24.996Z,0.00
2024-01-06T13:29:53.106Z,0.90
2024-01-06T13:32:20.751Z,0.30
2024-01-06T13:34:49.700Z,0.00
2024-01-06T13:37:17.179Z,0.00
2024-01-06T13:39:44.657Z,0.00
2024-01-06T13:42:12.119Z,0.28
2024-01-06T13:44:39.553Z,0.25
2024-01-06T13:47:07.761Z,1.05
2024-01-06T13:49:37.776Z,0.00
2024-01-06T13:52:06.637Z,0.57
2024-01-06T13:54:36.559Z,0.03
2024-01-06T13:57:04.097Z,0.65
2024-01-06T13:59:31.518Z,0.47
2024-01-06T14:01:59.047Z,0.17
2024-01-06T14:04:26.566Z,0.17
2024-01-06T14:06:57.313Z,0.40
2024-01-06T14:09:24.996Z,0.00
2024-01-06T14:11:52.471Z,0.03
2024-01-06T14:14:19.868Z,0.13
2024-01-06T14:16:56.346Z,0.00
2024-01-06T14:19:25.137Z,0.30
2024-01-06T14:21:52.643Z,0.10
2024-01-06T14:24:24.778Z,0.00
2024-01-06T14:26:54.245Z,0.15
2024-01-06T14:29:21.720Z,0.15
2024-01-06T14:31:49.777Z,0.10
2024-01-06T14:34:17.427Z,0.07
2024-01-06T14:36:49.001Z,0.00
2024-01-06T14:39:20.370Z,0.00
2024-01-06T14:41:50.211Z,0.00
2024-01-06T14:44:18.963Z,0.15
2024-01-06T14:46:46.355Z,0.13
2024-01-06T14:49:13.950Z,0.10
2024-01-06T14:51:41.473Z,0.20
2024-01-06T14:54:12.584Z,0.00
2024-01-06T14:56:42.283Z,0.00
2024-01-06T14:59:10.180Z,0.17
2024-01-06T15:01:37.879Z,0.00
2024-01-06T15:04:05.664Z,0.57
2024-01-06T15:06:33.254Z,0.30
2024-01-06T15:09:00.726Z,0.10
2024-01-06T15:11:28.143Z,0.00
2024-01-06T15:13:55.535Z,0.00
2024-01-06T15:16:23.374Z,0.00
2024-01-06T15:18:51.455Z,0.10
2024-01-06T15:21:24.471Z,0.00
2024-01-06T15:23:51.960Z,0.00
2024-01-06T15:26:28.774Z,0.20
2024-01-06T15:28:57.530Z,0.00
2024-01-06T15:31:25.140Z,0.00
2024-01-06T15:33:52.921Z,0.00
2024-01-06T15:36:20.476Z,0.00
2024-01-06T15:38:47.781Z,0.00
2024-01-06T15:41:19.350Z,0.00
2024-01-06T15:43:47.205Z,0.43
2024-01-06T15:46:16.995Z,0.00
2024-01-06T15:48:46.974Z,0.00
2024-01-06T15:51:14.470Z,0.00
2024-01-06T15:53:41.953Z,0.00
2024-01-06T15:56:09.296Z,0.00
2024-01-06T15:58:36.683Z,0.55
2024-01-06T16:01:05.489Z,0.00
2024-01-06T16:03:33.046Z,0.00
2024-01-06T16:06:01.212Z,0.00
2024-01-06T16:08:30.362Z,0.00
2024-01-06T16:10:57.986Z,0.00
2024-01-06T16:13:25.393Z,0.00
2024-01-06T16:15:53.839Z,0.00
2024-01-06T16:18:26.633Z,0.00
2024-01-06T16:20:55.796Z,0.00
2024-01-06T16:25:52.540Z,0.00
2024-01-06T16:28:22.403Z,0.00
2024-01-06T16:30:49.983Z,0.00
2024-01-06T16:33:21.172Z,0.00
2024-01-06T16:35:48.759Z,0.10
2024-01-06T16:38:16.248Z,0.00
2024-01-06T16:40:44.055Z,0.10
2024-01-06T16:43:11.513Z,0.00
2024-01-06T16:45:41.746Z,0.00
2024-01-06T16:48:09.541Z,0.00
2024-01-06T16:50:40.513Z,0.00
2024-01-06T16:53:08.969Z,0.00
2024-01-06T16:55:38.828Z,0.00
2024-01-06T16:58:09.265Z,0.00
2024-01-06T17:00:36.829Z,0.22
2024-01-06T17:03:05.110Z,0.00
2024-01-06T17:05:32.648Z,0.17
2024-01-06T17:08:00.068Z,0.00
2024-01-06T17:10:27.489Z,0.00
2024-01-06T17:12:55.660Z,0.20
2024-01-06T17:15:26.034Z,0.00
2024-01-06T17:17:53.741Z,0.00
2024-01-06T17:20:23.575Z,0.00
2024-01-06T17:22:51.140Z,0.00
2024-01-06T17:25:18.663Z,0.00
2024-01-06T17:27:47.117Z,0.00
2024-01-06T17:30:16.171Z,0.00
2024-01-06T17:35:11.036Z,0.00
2024-01-06T17:37:38.556Z,0.98
2024-01-06T17:40:06.694Z,0.00
2024-01-06T17:42:35.308Z,0.00
2024-01-06T17:45:04.520Z,0.00
2024-01-06T17:47:32.280Z,0.00
2024-01-06T17:49:59.681Z,0.40
2024-01-06T17:52:28.124Z,0.00
2024-01-06T17:54:55.626Z,0.15
2024-01-06T17:57:24.068Z,0.00
2024-01-06T17:59:58.220Z,0.17
2024-01-06T18:02:28.910Z,0.20
2024-01-06T18:04:57.036Z,0.00
2024-01-06T18:07:26.608Z,0.00
2024-01-06T18:09:54.220Z,0.00
2024-01-06T18:12:21.685Z,0.00
2024-01-06T18:14:49.123Z,0.00
2024-01-06T18:17:16.661Z,0.00
2024-01-06T18:19:44.164Z,0.00
2024-01-06T18:22:13.239Z,0.00
2024-01-06T18:27:12.061Z,0.22
2024-01-06T18:29:39.580Z,0.00
2024-01-06T18:32:07.484Z,0.00
2024-01-06T18:34:35.394Z,0.00
2024-01-06T18:37:02.874Z,0.10
2024-01-06T18:39:30.447Z,0.00
2024-01-06T18:41:57.821Z,0.00
2024-01-06T18:44:25.305Z,0.00
2024-01-06T18:46:55.008Z,0.00
2024-01-06T18:49:22.548Z,0.00
2024-01-06T18:51:50.626Z,0.00
2024-01-06T18:54:23.332Z,0.00
2024-01-06T18:56:59.978Z,0.00
2024-01-06T18:59:27.404Z,0.05
2024-01-06T19:01:54.893Z,0.70
2024-01-06T19:04:22.388Z,0.00
2024-01-06T19:06:50.443Z,0.00
2024-01-06T19:09:17.912Z,0.00
2024-01-06T19:11:47.902Z,0.00
2024-01-06T19:14:15.565Z,0.38
2024-01-06T19:16:47.133Z,0.00
2024-01-06T19:19:15.028Z,0.00
2024-01-06T19:21:43.100Z,0.00
2024-01-06T19:24:12.242Z,0.10
2024-01-06T19:26:44.111Z,0.00
2024-01-06T19:29:11.575Z,0.00
2024-01-06T19:31:39.068Z,0.00
2024-01-06T19:34:08.174Z,0.00
2024-01-06T19:36:36.903Z,0.22
2024-01-06T19:39:05.072Z,0.00
2024-01-06T19:41:32.555Z,0.30
2024-01-06T19:44:02.629Z,0.20
2024-01-06T19:46:33.494Z,0.00
2024-01-06T19:49:02.981Z,0.05
2024-01-06T19:51:30.942Z,0.30
2024-01-06T19:53:58.428Z,0.00
2024-01-06T19:56:25.814Z,0.00
2024-01-06T19:58:53.154Z,0.00
2024-01-06T20:01:20.580Z,0.08
2024-01-06T20:03:48.127Z,0.00
2024-01-06T20:06:17.924Z,0.00
2024-01-06T20:08:45.277Z,0.00
2024-01-06T20:11:12.745Z,0.00
2024-01-06T20:13:40.160Z,0.00
2024-01-06T20:16:08.555Z,0.38
2024-01-06T20:18:38.257Z,0.00
2024-01-06T20:21:06.157Z,0.00
2024-01-06T20:23:33.662Z,0.47
2024-01-06T20:26:01.504Z,0.00
2024-01-06T20:28:28.857Z,0.00
2024-01-06T20:30:56.485Z,0.00
2024-01-06T20:33:24.174Z,0.00
2024-01-06T20:35:51.775Z,0.00
2024-01-06T20:38:20.657Z,0.00
2024-01-06T20:40:48.659Z,0.00
2024-01-06T20:43:16.144Z,0.00
2024-01-06T20:45:45.450Z,0.00
2024-01-06T20:48:12.942Z,0.35
2024-01-06T20:50:40.484Z,0.00
2024-01-06T20:53:07.922Z,0.10
2024-01-06T20:55:35.338Z,0.00
2024-01-06T20:58:02.756Z,0.00
2024-01-06T21:00:34.562Z,0.00
2024-01-06T21:03:02.691Z,0.00
2024-01-06T21:05:30.663Z,0.00
2024-01-06T21:08:00.369Z,0.00
2024-01-06T21:10:27.697Z,0.52
2024-01-06T21:12:55.152Z,0.22
2024-01-06T21:15:23.878Z,0.00
2024-01-06T21:17:51.324Z,0.00
2024-01-06T21:20:18.753Z,0.00
2024-01-06T21:22:46.244Z,0.00
2024-01-06T21:25:14.169Z,0.00
2024-01-06T21:27:41.674Z,0.00
2024-01-06T21:30:09.335Z,0.00
2024-01-06T21:32:36.844Z,0.00
2024-01-06T21:35:05.977Z,0.10
2024-01-06T21:37:34.244Z,0.00
2024-01-06T21:40:07.938Z,0.00
2024-01-06T21:42:35.841Z,0.00
2024-01-06T21:45:03.901Z,0.00
2024-01-06T21:47:31.685Z,0.00
2024-01-06T21:49:59.191Z,0.00
2024-01-06T21:52:26.677Z,0.08
2024-01-06T21:54:54.206Z,0.47
2024-01-06T21:57:21.703Z,0.00
2024-01-06T21:59:49.156Z,0.00
2024-01-06T22:02:16.520Z,0.00
2024-01-06T22:04:43.916Z,0.00
2024-01-06T22:07:11.308Z,0.00
2024-01-06T22:09:41.250Z,0.20
2024-01-06T22:12:09.232Z,0.00
2024-01-06T22:14:39.422Z,0.00
2024-01-06T22:17:07.216Z,0.00
2024-01-06T22:19:34.732Z,0.00
2024-01-06T22:22:02.247Z,0.30
2024-01-06T22:24:30.268Z,0.00
2024-01-06T22:26:57.689Z,0.00
2024-01-06T22:29:25.056Z,0.00
2024-01-06T22:31:52.569Z,0.00
2024-01-06T22:34:20.394Z,0.00
2024-01-06T22:36:51.155Z,0.00
2024-01-06T22:39:18.812Z,0.00
2024-01-06T22:41:46.577Z,0.00
2024-01-06T22:44:14.006Z,0.00
2024-01-06T22:46:41.399Z,0.00
2024-01-06T22:49:08.975Z,0.00
2024-01-06T22:51:36.514Z,0.17
2024-01-06T22:54:04.071Z,0.00
2024-01-06T22:56:31.483Z,0.00
2024-01-06T22:59:00.637Z,0.00
2024-01-06T23:01:29.623Z,0.25
2024-01-06T23:06:24.327Z,0.00
2024-01-06T23:08:51.831Z,0.00
2024-01-06T23:11:19.925Z,0.00
2024-01-06T23:13:47.356Z,0.00
2024-01-06T23:16:14.962Z,0.00
2024-01-06T23:18:42.659Z,0.00
2024-01-06T23:21:10.159Z,0.00
2024-01-06T23:23:38.447Z,0.00
2024-01-06T23:26:05.881Z,0.00
2024-01-06T23:28:33.373Z,0.00
2024-01-06T23:31:01.083Z,0.00
2024-01-06T23:33:28.735Z,0.00
2024-01-06T23:35:56.436Z,0.00
2024-01-06T23:38:23.834Z,0.10
2024-01-06T23:40:51.328Z,0.00
2024-01-06T23:43:18.743Z,0.00
2024-01-06T23:45:46.246Z,0.00
2024-01-06T23:48:13.774Z,0.00
2024-01-06T23:50:43.134Z,0.00
2024-01-06T23:53:12.243Z,0.10
2024-01-06T23:55:39.715Z,0.00
2024-01-06T23:58:07.152Z,0.00
